Time;durP1;ratioP1;P1;durP2;ratioP2;P2;SDS_P1;SDS_P2;PMS_P1;PMS_P2;Temp;Humidity;BMP_temperature;BMP_pressure;BME280_temperature;BME280_humidity;BME280_pressure;Samples;Min_cycle;Max_cycle;Signal;HPM_P1;HPM_P2
2023/04/29 00:00:27;;;;;;;22.98;20.02;;;12.30;99.90;;;;;;4959684;28;20038;-51
2023/04/29 00:03:13;;;;;;;23.38;20.83;;;12.20;99.90;;;;;;4975288;28;20027;-49
2023/04/29 00:05:59;;;;;;;22.70;20.35;;;12.20;99.90;;;;;;4974555;28;20041;-51
2023/04/29 00:08:45;;;;;;;22.40;20.10;;;12.20;99.90;;;;;;4975642;28;20019;-47
2023/04/29 00:11:31;;;;;;;22.30;20.00;;;12.10;99.90;;;;;;4975893;28;20058;-50
2023/04/29 00:14:17;;;;;;;24.23;21.35;;;12.10;99.90;;;;;;4961080;28;20031;-45
2023/04/29 00:17:03;;;;;;;22.40;20.20;;;12.10;99.90;;;;;;4974732;28;20453;-49
2023/04/29 00:19:49;;;;;;;23.67;20.35;;;12.20;99.90;;;;;;4974478;28;20570;-49
2023/04/29 00:22:35;;;;;;;21.92;19.70;;;12.20;99.90;;;;;;4975639;28;20031;-48
2023/04/29 00:25:21;;;;;;;21.05;18.85;;;12.30;99.90;;;;;;4975615;28;20379;-48
2023/04/29 00:28:07;;;;;;;25.42;19.80;;;12.20;99.90;;;;;;4974907;28;20069;-47
2023/04/29 00:30:53;;;;;;;20.90;18.67;;;12.20;99.90;;;;;;4974478;28;20030;-47
2023/04/29 00:33:39;;;;;;;21.77;19.48;;;12.30;99.90;;;;;;4956484;28;20027;-47
2023/04/29 00:36:25;;;;;;;20.15;18.02;;;12.30;99.90;;;;;;4974513;28;20089;-45
2023/04/29 00:39:12;;;;;;;20.95;18.73;;;12.20;99.90;;;;;;4975352;28;20019;-46
2023/04/29 00:41:58;;;;;;;20.15;18.00;;;12.20;99.90;;;;;;4974832;28;20162;-52
2023/04/29 00:44:44;;;;;;;21.17;18.92;;;12.30;99.90;;;;;;4974580;28;20098;-50
2023/04/29 00:47:30;;;;;;;20.88;18.65;;;12.30;99.90;;;;;;4973476;28;20035;-49
2023/04/29 00:50:16;;;;;;;20.90;18.80;;;12.20;99.90;;;;;;4974098;28;20027;-47
2023/04/29 00:53:03;;;;;;;21.38;19.10;;;12.20;99.90;;;;;;4974980;28;20027;-46
2023/04/29 00:55:50;;;;;;;21.55;19.35;;;12.30;99.90;;;;;;4975179;28;20543;-47
2023/04/29 00:58:38;;;;;;;23.02;20.40;;;12.10;99.90;;;;;;4974342;28;20114;-46
2023/04/29 01:01:23;;;;;;;21.33;18.85;;;12.10;99.90;;;;;;4973498;28;20554;-46
2023/04/29 01:04:09;;;;;;;22.35;20.05;;;12.20;99.90;;;;;;4970912;28;20074;-47
2023/04/29 01:07:14;;;;;;;21.63;19.02;;;12.20;99.90;;;;;;4973796;28;20114;-47
2023/04/29 01:10:30;;;;;;;21.35;19.10;;;12.30;99.90;;;;;;4954899;29;20035;-50
2023/04/29 01:13:28;;;;;;;20.75;18.55;;;12.30;99.90;;;;;;4965924;28;20031;-48
2023/04/29 01:16:23;;;;;;;23.13;20.35;;;12.30;99.90;;;;;;4972040;28;20117;-50
2023/04/29 01:19:16;;;;;;;23.80;19.80;;;12.40;99.90;;;;;;4960733;28;20038;-47
2023/04/29 01:22:02;;;;;;;24.60;22.00;;;12.30;99.90;;;;;;4972985;28;20114;-46
2023/04/29 01:24:48;;;;;;;23.08;20.70;;;12.20;99.90;;;;;;4974671;28;20102;-46
2023/04/29 01:27:55;;;;;;;24.55;21.95;;;12.20;99.90;;;;;;4974247;28;20147;-46
2023/04/29 01:30:56;;;;;;;24.15;21.58;;;12.20;99.90;;;;;;4973560;28;20027;-51
2023/04/29 01:33:48;;;;;;;25.27;22.58;;;12.10;99.90;;;;;;4973925;28;20018;-49
2023/04/29 01:37:03;;;;;;;24.92;22.45;;;12.00;99.90;;;;;;4973182;28;20028;-47
2023/04/29 01:40:09;;;;;;;24.15;21.55;;;12.00;99.90;;;;;;4973826;28;20058;-50
2023/04/29 01:43:00;;;;;;;25.95;22.50;;;12.00;99.90;;;;;;4954524;29;20504;-51
2023/04/29 01:45:46;;;;;;;25.75;22.92;;;12.00;99.90;;;;;;4957273;28;20384;-49
2023/04/29 01:48:32;;;;;;;26.08;23.45;;;12.10;99.90;;;;;;4973140;28;20059;-52
2023/04/29 01:51:18;;;;;;;26.15;22.67;;;12.10;99.90;;;;;;4973796;28;20039;-49
2023/04/29 01:54:04;;;;;;;26.50;23.25;;;12.10;99.90;;;;;;4960239;28;20082;-46
2023/04/29 01:56:51;;;;;;;25.58;22.90;;;12.10;99.90;;;;;;4969656;28;20031;-46
2023/04/29 01:59:36;;;;;;;27.83;23.42;;;12.10;99.90;;;;;;4973129;28;20046;-48
2023/04/29 02:02:24;;;;;;;27.00;24.17;;;12.20;99.90;;;;;;4963469;28;20055;-47
2023/04/29 02:05:10;;;;;;;26.52;23.67;;;12.20;99.90;;;;;;4966164;28;20499;-46
2023/04/29 02:07:55;;;;;;;28.92;24.08;;;12.30;99.90;;;;;;4953941;29;20519;-46
2023/04/29 02:10:50;;;;;;;26.52;23.67;;;12.30;99.90;;;;;;4971091;28;20516;-46
2023/04/29 02:13:36;;;;;;;26.92;23.75;;;12.30;99.90;;;;;;4972722;28;20517;-46
2023/04/29 02:16:22;;;;;;;28.63;25.52;;;12.30;99.90;;;;;;4972574;28;20089;-48
2023/04/29 02:19:08;;;;;;;26.98;24.08;;;12.30;99.90;;;;;;4973486;28;20082;-46
2023/04/29 02:21:53;;;;;;;30.52;26.05;;;12.30;99.90;;;;;;4973449;28;20042;-45
2023/04/29 02:24:39;;;;;;;28.40;24.98;;;12.30;99.90;;;;;;4973808;28;20023;-47
2023/04/29 02:27:26;;;;;;;28.20;25.00;;;12.20;99.90;;;;;;4972878;28;20034;-49
2023/04/29 02:30:12;;;;;;;27.33;24.42;;;12.20;99.90;;;;;;4952146;28;20515;-47
2023/04/29 02:32:57;;;;;;;30.75;26.45;;;12.20;99.90;;;;;;4953029;29;20035;-48
2023/04/29 02:35:44;;;;;;;29.42;26.20;;;12.30;99.90;;;;;;4966742;28;20027;-46
2023/04/29 02:38:30;;;;;;;30.23;25.33;;;12.30;99.90;;;;;;4972753;28;20042;-46
2023/04/29 02:41:17;;;;;;;29.40;26.25;;;12.30;99.90;;;;;;4973228;28;20031;-47
2023/04/29 02:44:02;;;;;;;30.05;26.67;;;12.30;99.90;;;;;;4972029;28;20027;-45
2023/04/29 02:46:48;;;;;;;28.27;24.92;;;12.30;99.90;;;;;;4972075;28;20097;-48
2023/04/29 02:49:34;;;;;;;28.23;25.17;;;12.30;99.90;;;;;;4973106;28;20027;-47
2023/04/29 02:52:20;;;;;;;29.60;26.08;;;12.30;99.90;;;;;;4972766;28;20407;-46
2023/04/29 02:55:06;;;;;;;28.23;25.15;;;12.20;99.90;;;;;;4973010;28;20496;-47
2023/04/29 02:57:52;;;;;;;31.35;25.63;;;12.30;99.90;;;;;;4952872;29;20110;-47
2023/04/29 03:00:40;;;;;;;30.02;26.38;;;12.30;99.90;;;;;;4957240;28;20038;-46
2023/04/29 03:03:26;;;;;;;30.33;26.05;;;12.30;99.90;;;;;;4953667;28;20027;-47
2023/04/29 03:06:12;;;;;;;30.60;26.15;;;12.30;99.90;;;;;;4960262;28;20027;-47
2023/04/29 03:08:58;;;;;;;31.58;27.05;;;12.30;99.90;;;;;;4978484;28;20499;-47
2023/04/29 03:11:44;;;;;;;29.27;25.55;;;12.20;99.90;;;;;;4973510;28;20553;-47
2023/04/29 03:14:30;;;;;;;30.65;25.55;;;12.30;99.90;;;;;;4972910;28;20106;-47
2023/04/29 03:17:16;;;;;;;32.58;26.50;;;12.30;99.90;;;;;;4953233;28;20496;-51
2023/04/29 03:20:03;;;;;;;28.80;24.55;;;12.30;99.90;;;;;;4956948;28;20512;-48
2023/04/29 03:22:49;;;;;;;30.80;26.00;;;12.20;99.90;;;;;;4972150;28;20500;-47
2023/04/29 03:25:35;;;;;;;29.27;25.92;;;12.30;99.90;;;;;;4974635;28;20035;-48
2023/04/29 03:28:21;;;;;;;30.23;25.50;;;12.30;99.90;;;;;;4975678;28;20497;-47
2023/04/29 03:31:07;;;;;;;30.95;26.35;;;12.20;99.90;;;;;;4975665;28;20038;-48
2023/04/29 03:33:53;;;;;;;30.33;25.83;;;12.30;99.90;;;;;;4976693;28;20061;-47
2023/04/29 03:36:39;;;;;;;29.70;24.88;;;12.30;99.90;;;;;;4975464;28;20042;-46
2023/04/29 03:39:27;;;;;;;31.25;26.15;;;12.30;99.90;;;;;;4976359;28;20027;-45
2023/04/29 03:42:12;;;;;;;29.02;24.73;;;12.30;99.90;;;;;;4974120;28;20035;-45
2023/04/29 03:44:58;;;;;;;29.15;25.27;;;12.30;99.90;;;;;;4975188;28;20035;-48
2023/04/29 03:47:44;;;;;;;29.17;25.85;;;12.30;99.90;;;;;;4975797;28;20069;-46
2023/04/29 03:50:30;;;;;;;30.05;25.10;;;12.40;99.90;;;;;;4975572;28;20054;-46
2023/04/29 03:53:17;;;;;;;28.58;25.48;;;12.40;99.90;;;;;;4970093;28;20035;-46
2023/04/29 03:56:03;;;;;;;31.17;26.13;;;12.40;99.90;;;;;;4974844;28;20027;-46
2023/04/29 03:58:49;;;;;;;29.60;24.85;;;12.40;99.90;;;;;;4976027;28;20401;-49
2023/04/29 04:01:35;;;;;;;30.33;25.10;;;12.40;99.90;;;;;;4975710;28;20034;-46
2023/04/29 04:04:21;;;;;;;30.33;24.70;;;12.30;99.90;;;;;;4975332;28;20035;-46
2023/04/29 04:07:07;;;;;;;29.48;23.85;;;12.40;99.90;;;;;;4974455;28;20062;-50
2023/04/29 04:09:53;;;;;;;31.38;24.85;;;12.30;99.90;;;;;;4975882;28;20381;-46
2023/04/29 04:12:39;;;;;;;27.27;23.60;;;12.40;99.90;;;;;;4975638;28;20462;-48
2023/04/29 04:15:25;;;;;;;28.08;23.40;;;12.50;99.90;;;;;;4975067;28;20113;-48
2023/04/29 04:18:11;;;;;;;30.88;24.58;;;12.50;99.90;;;;;;4974827;28;20023;-51
2023/04/29 04:20:57;;;;;;;26.65;23.40;;;12.40;99.90;;;;;;4975526;28;20050;-46
2023/04/29 04:23:43;;;;;;;26.08;21.38;;;12.50;99.90;;;;;;4975206;28;20035;-45
2023/04/29 04:26:29;;;;;;;30.35;24.48;;;12.50;99.90;;;;;;4974570;28;20035;-48
2023/04/29 04:29:15;;;;;;;28.13;22.85;;;12.40;99.90;;;;;;4974982;28;20057;-48
2023/04/29 04:32:01;;;;;;;27.40;22.45;;;12.40;99.90;;;;;;4974896;28;20026;-48
2023/04/29 04:34:47;;;;;;;28.13;22.90;;;12.50;99.90;;;;;;4974422;28;20031;-48
2023/04/29 04:37:33;;;;;;;26.65;21.98;;;12.60;99.90;;;;;;4974168;28;20062;-50
2023/04/29 04:40:19;;;;;;;25.40;21.63;;;12.60;99.90;;;;;;4975126;28;20125;-47
2023/04/29 04:43:05;;;;;;;26.27;20.95;;;12.70;99.90;;;;;;4974181;28;20046;-48
2023/04/29 04:45:51;;;;;;;26.02;20.80;;;12.80;99.90;;;;;;4974973;28;20027;-50
2023/04/29 04:48:37;;;;;;;24.75;20.33;;;12.70;99.90;;;;;;4974594;28;20031;-49
2023/04/29 04:51:23;;;;;;;24.08;19.15;;;12.80;99.90;;;;;;4974452;28;20066;-46
2023/04/29 04:54:09;;;;;;;23.63;19.08;;;12.70;99.90;;;;;;4975122;28;20508;-46
2023/04/29 04:56:55;;;;;;;21.50;17.35;;;12.70;99.90;;;;;;4974849;28;20077;-47
2023/04/29 04:59:42;;;;;;;20.98;17.35;;;12.80;99.90;;;;;;4974669;28;20059;-50
2023/04/29 05:02:28;;;;;;;19.60;15.48;;;12.80;99.90;;;;;;4973435;28;20114;-44
2023/04/29 05:05:13;;;;;;;17.33;14.32;;;12.90;99.90;;;;;;4961265;28;20035;-46
2023/04/29 05:07:59;;;;;;;17.95;15.13;;;13.00;99.90;;;;;;4974439;28;20023;-49
2023/04/29 05:10:45;;;;;;;17.77;13.05;;;12.90;99.90;;;;;;4974645;28;20095;-47
2023/04/29 05:13:32;;;;;;;17.50;13.88;;;13.00;99.90;;;;;;4974806;28;20050;-46
2023/04/29 05:16:18;;;;;;;16.77;13.45;;;13.10;99.90;;;;;;4973928;28;20124;-47
2023/04/29 05:19:04;;;;;;;14.48;12.43;;;13.20;99.90;;;;;;4974077;28;20093;-46
2023/04/29 05:21:50;;;;;;;15.07;12.93;;;13.20;99.90;;;;;;4974202;28;20035;-53
2023/04/29 05:24:37;;;;;;;17.23;14.27;;;13.30;99.90;;;;;;4973485;28;20462;-48
2023/04/29 05:27:23;;;;;;;18.35;14.88;;;13.10;99.90;;;;;;4972995;28;20043;-47
2023/04/29 05:30:09;;;;;;;17.48;14.80;;;13.20;99.90;;;;;;4967590;28;20046;-50
2023/04/29 05:32:55;;;;;;;18.58;14.90;;;13.10;99.90;;;;;;4964187;28;20110;-48
2023/04/29 05:35:41;;;;;;;19.05;15.38;;;13.10;99.90;;;;;;4974463;28;20035;-47
2023/04/29 05:38:27;;;;;;;18.92;15.02;;;13.20;99.90;;;;;;4973388;28;20027;-50
2023/04/29 05:41:13;;;;;;;19.40;15.98;;;13.20;99.90;;;;;;4973369;28;20090;-47
2023/04/29 05:43:59;;;;;;;21.10;17.52;;;13.30;99.90;;;;;;4973185;28;20065;-49
2023/04/29 05:46:47;;;;;;;20.20;17.10;;;13.20;99.90;;;;;;4972638;28;20074;-49
2023/04/29 05:49:33;;;;;;;20.75;16.92;;;13.30;99.90;;;;;;4953777;28;20071;-47
2023/04/29 05:52:19;;;;;;;19.05;16.90;;;13.20;99.90;;;;;;4940327;28;20058;-47
2023/04/29 05:55:05;;;;;;;20.98;17.73;;;13.10;99.90;;;;;;4971944;28;20027;-49
2023/04/29 05:57:51;;;;;;;20.25;16.73;;;13.10;99.90;;;;;;4971514;28;20109;-45
2023/04/29 06:00:38;;;;;;;20.63;17.20;;;13.10;99.90;;;;;;4973962;28;20041;-50
2023/04/29 06:03:24;;;;;;;20.90;17.13;;;13.10;99.90;;;;;;4973773;28;20042;-49
2023/04/29 06:06:10;;;;;;;19.95;17.35;;;13.10;99.90;;;;;;4973892;28;20122;-50
2023/04/29 06:08:56;;;;;;;19.48;16.85;;;13.10;99.90;;;;;;4973088;28;20031;-47
2023/04/29 06:11:43;;;;;;;19.67;16.20;;;13.20;99.90;;;;;;4973772;28;20081;-51
2023/04/29 06:14:29;;;;;;;20.45;16.40;;;13.20;99.90;;;;;;4972919;28;20027;-50
2023/04/29 06:17:15;;;;;;;19.30;16.73;;;13.10;99.90;;;;;;4972958;28;20503;-46
2023/04/29 06:20:01;;;;;;;17.65;14.95;;;13.20;99.90;;;;;;4954534;28;20035;-49
2023/04/29 06:22:48;;;;;;;16.15;14.20;;;13.30;99.90;;;;;;4954188;28;20023;-48
2023/04/29 06:25:34;;;;;;;17.17;14.90;;;13.30;99.90;;;;;;4972939;28;20022;-50
2023/04/29 06:28:20;;;;;;;16.98;14.63;;;13.20;99.90;;;;;;4972752;28;20065;-46
2023/04/29 06:31:06;;;;;;;16.98;14.50;;;13.20;99.90;;;;;;4972605;28;20518;-46
2023/04/29 06:33:52;;;;;;;16.42;13.30;;;13.20;99.90;;;;;;4972850;28;20081;-46
2023/04/29 06:36:38;;;;;;;14.65;11.75;;;13.10;99.90;;;;;;4971738;28;20079;-47
2023/04/29 06:39:24;;;;;;;14.63;11.70;;;13.10;99.90;;;;;;4972695;28;20035;-51
2023/04/29 06:42:10;;;;;;;13.95;11.95;;;13.10;99.90;;;;;;4971959;28;20035;-48
2023/04/29 06:44:56;;;;;;;16.17;11.20;;;13.00;99.90;;;;;;4973217;28;20031;-46
2023/04/29 06:47:42;;;;;;;13.50;10.98;;;13.00;99.90;;;;;;4971713;28;20058;-45
2023/04/29 06:50:28;;;;;;;14.55;11.15;;;12.90;99.90;;;;;;4971528;28;20050;-45
2023/04/29 06:53:14;;;;;;;13.57;10.05;;;12.90;99.90;;;;;;4971867;28;20070;-47
2023/04/29 06:56:00;;;;;;;14.27;11.55;;;12.90;99.90;;;;;;4971738;28;20023;-52
2023/04/29 06:58:46;;;;;;;15.32;11.30;;;12.90;99.90;;;;;;4973064;28;20037;-46
2023/04/29 07:01:32;;;;;;;17.10;11.70;;;12.90;99.90;;;;;;4972615;28;20524;-45
2023/04/29 07:04:18;;;;;;;15.27;11.90;;;12.80;99.90;;;;;;4972463;28;20035;-48
2023/04/29 07:07:04;;;;;;;15.90;13.18;;;12.80;99.90;;;;;;4971417;28;20027;-46
2023/04/29 07:09:52;;;;;;;14.33;12.80;;;12.70;99.90;;;;;;4972720;28;20039;-46
2023/04/29 07:12:38;;;;;;;14.18;11.90;;;12.90;99.90;;;;;;4972282;28;20042;-48
2023/04/29 07:15:24;;;;;;;19.10;16.00;;;13.00;99.90;;;;;;4970191;28;20026;-49
2023/04/29 07:18:10;;;;;;;19.50;17.02;;;12.90;99.90;;;;;;4972004;28;20026;-45
2023/04/29 07:21:01;;;;;;;20.98;17.27;;;12.90;99.90;;;;;;4971875;28;20035;-47
2023/04/29 07:23:46;;;;;;;22.60;19.73;;;12.90;99.90;;;;;;4957992;28;20053;-49
2023/04/29 07:26:32;;;;;;;22.10;18.73;;;12.70;99.90;;;;;;4971824;28;20037;-48
2023/04/29 07:29:19;;;;;;;22.30;19.92;;;12.70;99.90;;;;;;4972207;28;20104;-48
2023/04/29 07:32:05;;;;;;;22.55;19.55;;;12.70;99.90;;;;;;4953370;29;20035;-47
2023/04/29 07:34:51;;;;;;;23.63;20.70;;;12.70;99.90;;;;;;4968638;28;20030;-51
2023/04/29 07:37:37;;;;;;;24.73;21.08;;;12.60;99.90;;;;;;4971797;28;20095;-45
2023/04/29 07:40:24;;;;;;;25.67;21.65;;;12.60;99.90;;;;;;4953282;28;20038;-46
2023/04/29 07:43:10;;;;;;;25.40;21.60;;;12.60;99.90;;;;;;4967041;28;20023;-46
2023/04/29 07:45:56;;;;;;;24.10;19.42;;;12.50;99.90;;;;;;4972300;28;20540;-45
2023/04/29 07:48:43;;;;;;;22.88;20.27;;;12.50;99.90;;;;;;4970658;28;20121;-49
2023/04/29 07:51:29;;;;;;;23.35;19.17;;;12.50;99.90;;;;;;4957480;28;20499;-48
2023/04/29 07:54:15;;;;;;;21.17;17.75;;;12.40;99.90;;;;;;4953323;29;20041;-47
2023/04/29 07:57:03;;;;;;;20.15;16.08;;;12.50;99.90;;;;;;4955409;28;20039;-47
2023/04/29 07:59:52;;;;;;;19.45;17.33;;;12.50;99.90;;;;;;4972577;28;20027;-49
2023/04/29 08:02:38;;;;;;;20.23;15.60;;;12.60;99.90;;;;;;4971199;28;20027;-49
2023/04/29 08:05:25;;;;;;;19.60;17.05;;;12.70;99.90;;;;;;4971124;28;20078;-48
2023/04/29 08:08:11;;;;;;;19.48;16.92;;;12.70;99.90;;;;;;4965661;28;20051;-50
2023/04/29 08:10:57;;;;;;;18.50;15.88;;;12.50;99.90;;;;;;4971228;28;20046;-50
2023/04/29 08:13:43;;;;;;;17.15;14.68;;;12.50;99.90;;;;;;4974950;28;20031;-51
2023/04/29 08:16:30;;;;;;;17.80;14.98;;;12.60;99.90;;;;;;4974727;28;20449;-50
2023/04/29 08:19:16;;;;;;;15.48;13.63;;;12.60;99.90;;;;;;4973819;28;20492;-49
2023/04/29 08:22:03;;;;;;;14.90;13.30;;;12.60;99.90;;;;;;4975728;28;20042;-48
2023/04/29 08:24:49;;;;;;;14.80;12.82;;;12.60;99.90;;;;;;4974329;28;20030;-49
2023/04/29 08:27:35;;;;;;;16.67;13.65;;;12.60;99.90;;;;;;4974509;28;20045;-47
2023/04/29 08:30:21;;;;;;;17.75;14.30;;;12.50;99.90;;;;;;4971481;28;20030;-50
2023/04/29 08:33:07;;;;;;;15.77;13.98;;;12.60;99.90;;;;;;4974454;28;20042;-46
2023/04/29 08:36:02;;;;;;;16.10;14.40;;;12.60;99.90;;;;;;4974848;28;20191;-52
2023/04/29 08:38:51;;;;;;;16.75;14.27;;;12.30;99.90;;;;;;4955767;28;20078;-53
2023/04/29 08:41:37;;;;;;;18.38;14.65;;;12.40;99.90;;;;;;4969892;28;20579;-50
2023/04/29 08:44:25;;;;;;;19.58;14.80;;;12.40;99.90;;;;;;4972631;28;20039;-50
2023/04/29 08:47:12;;;;;;;15.77;12.93;;;12.30;99.90;;;;;;4973678;28;20500;-48
2023/04/29 08:50:04;;;;;;;16.17;13.52;;;12.30;99.90;;;;;;4972047;28;20042;-47
2023/04/29 08:52:50;;;;;;;16.02;13.43;;;12.40;99.90;;;;;;4973264;28;20034;-52
2023/04/29 08:55:46;;;;;;;17.52;14.35;;;12.30;99.90;;;;;;4973839;28;20042;-46
2023/04/29 08:58:35;;;;;;;16.85;14.52;;;12.10;99.90;;;;;;4973853;28;20019;-48
2023/04/29 09:01:22;;;;;;;15.82;13.45;;;12.10;99.90;;;;;;4974219;28;20113;-51
2023/04/29 09:04:25;;;;;;;16.35;13.63;;;12.20;99.90;;;;;;4974747;28;20074;-46
2023/04/29 09:07:12;;;;;;;16.30;14.32;;;12.20;99.90;;;;;;4973236;28;20101;-51
2023/04/29 09:09:58;;;;;;;18.95;14.73;;;12.20;99.90;;;;;;4974110;28;20554;-47
2023/04/29 09:12:45;;;;;;;16.10;14.27;;;12.20;99.90;;;;;;4973126;28;20113;-47
2023/04/29 09:15:36;;;;;;;14.93;13.32;;;12.20;99.90;;;;;;4974135;28;20542;-46
2023/04/29 09:18:45;;;;;;;16.67;14.30;;;12.20;99.90;;;;;;4958879;28;20031;-54
2023/04/29 09:21:31;;;;;;;17.92;14.85;;;12.10;99.90;;;;;;4958268;28;20039;-48
2023/04/29 09:24:25;;;;;;;17.52;14.90;;;12.10;99.90;;;;;;4972666;28;20415;-47
2023/04/29 09:27:26;;;;;;;18.73;15.93;;;12.10;99.90;;;;;;4973593;28;20031;-49
2023/04/29 09:30:15;;;;;;;24.30;16.52;;;12.00;99.90;;;;;;4972644;28;20034;-49
2023/04/29 09:33:08;;;;;;;23.15;16.30;;;11.80;99.90;;;;;;4973458;28;20033;-46
2023/04/29 09:35:54;;;;;;;19.10;16.35;;;11.70;99.90;;;;;;4973893;28;20098;-52
2023/04/29 09:38:57;;;;;;;19.45;15.20;;;11.70;99.90;;;;;;4973002;28;20067;-47
2023/04/29 09:41:52;;;;;;;17.35;14.27;;;11.70;99.90;;;;;;4954438;28;20486;-53
2023/04/29 09:44:41;;;;;;;15.07;13.48;;;11.70;99.90;;;;;;4955708;28;20146;-49
2023/04/29 09:47:31;;;;;;;15.25;13.63;;;11.70;99.90;;;;;;4953741;28;20039;-50
2023/04/29 09:50:18;;;;;;;15.50;12.75;;;11.90;99.90;;;;;;4968050;28;20039;-46
2023/04/29 09:53:09;;;;;;;12.77;11.40;;;12.00;99.90;;;;;;4973049;28;20023;-51
2023/04/29 09:56:00;;;;;;;13.70;11.40;;;12.00;99.90;;;;;;4972605;28;20037;-46
2023/04/29 09:58:46;;;;;;;12.25;10.85;;;12.00;99.90;;;;;;4973712;28;20027;-45
2023/04/29 10:01:34;;;;;;;13.65;11.82;;;12.00;99.90;;;;;;4953545;28;20034;-46
2023/04/29 10:04:22;;;;;;;12.00;10.50;;;12.10;99.90;;;;;;4957310;28;20074;-45
2023/04/29 10:07:12;;;;;;;11.70;10.27;;;12.20;99.90;;;;;;4971607;28;20042;-46
2023/04/29 10:09:58;;;;;;;12.02;10.27;;;12.30;99.90;;;;;;4972749;28;20034;-50
2023/04/29 10:12:45;;;;;;;11.23;10.00;;;12.30;99.90;;;;;;4973567;28;20039;-48
2023/04/29 10:15:42;;;;;;;14.27;11.82;;;11.90;99.90;;;;;;4960216;28;20538;-49
2023/04/29 10:18:42;;;;;;;14.13;12.32;;;11.90;99.90;;;;;;4972745;28;20026;-51
2023/04/29 10:21:30;;;;;;;15.52;13.63;;;11.80;99.90;;;;;;4954481;28;20150;-53
2023/04/29 10:24:18;;;;;;;15.88;13.88;;;11.60;99.90;;;;;;4958261;28;20026;-47
2023/04/29 10:27:11;;;;;;;16.13;13.82;;;11.70;99.90;;;;;;4973596;28;20054;-47
2023/04/29 10:29:57;;;;;;;16.08;14.38;;;11.80;99.90;;;;;;4972472;28;20395;-47
2023/04/29 10:32:45;;;;;;;17.95;14.80;;;11.90;99.90;;;;;;4958432;28;20421;-49
2023/04/29 10:35:31;;;;;;;14.88;13.27;;;11.90;99.90;;;;;;4972732;28;20479;-49
2023/04/29 10:38:46;;;;;;;20.10;16.30;;;12.10;99.90;;;;;;4971692;28;20027;-49
2023/04/29 10:41:51;;;;;;;20.70;16.45;;;12.10;99.90;;;;;;4954359;28;20504;-51
2023/04/29 10:45:15;;;;;;;19.75;16.83;;;12.20;99.90;;;;;;4956798;28;20404;-47
2023/04/29 10:48:05;;;;;;;20.58;18.40;;;12.30;99.90;;;;;;4971682;28;20421;-45
2023/04/29 10:50:50;;;;;;;20.58;18.38;;;12.30;99.90;;;;;;4971353;28;20039;-46
2023/04/29 10:53:57;;;;;;;21.15;18.55;;;12.20;99.90;;;;;;4971737;28;20563;-46
2023/04/29 10:56:48;;;;;;;23.00;19.33;;;12.20;99.90;;;;;;4968636;28;20511;-45
2023/04/29 10:59:35;;;;;;;24.55;20.25;;;12.30;99.90;;;;;;4954023;28;20123;-49
2023/04/29 11:02:21;;;;;;;21.67;19.17;;;12.20;99.90;;;;;;4972624;28;20054;-49
2023/04/29 11:05:11;;;;;;;25.20;20.52;;;12.30;99.90;;;;;;4958065;28;20037;-50
2023/04/29 11:08:22;;;;;;;21.75;19.45;;;12.20;99.90;;;;;;4971755;28;20533;-49
2023/04/29 11:11:08;;;;;;;22.40;19.15;;;12.20;99.90;;;;;;4952715;28;20126;-48
2023/04/29 11:13:55;;;;;;;20.48;18.33;;;12.30;99.90;;;;;;4955217;28;20054;-50
2023/04/29 11:17:01;;;;;;;21.73;19.42;;;12.20;99.90;;;;;;4971067;28;20027;-47
2023/04/29 11:19:49;;;;;;;21.27;18.88;;;12.20;99.90;;;;;;4971086;28;20113;-48
2023/04/29 11:22:35;;;;;;;21.88;18.10;;;12.50;99.90;;;;;;4972290;28;20039;-45
2023/04/29 11:25:25;;;;;;;22.95;19.85;;;12.50;99.90;;;;;;4972426;28;20031;-45
2023/04/29 11:28:11;;;;;;;23.40;19.63;;;12.50;99.90;;;;;;4971736;28;20035;-47
2023/04/29 11:30:58;;;;;;;22.05;19.52;;;12.70;99.90;;;;;;4971762;28;20035;-47
2023/04/29 11:33:45;;;;;;;21.60;18.92;;;12.80;99.90;;;;;;4971387;28;20492;-53
2023/04/29 11:36:32;;;;;;;21.92;19.23;;;12.90;99.90;;;;;;4971688;28;20027;-49
2023/04/29 11:39:18;;;;;;;21.27;19.05;;;12.90;99.90;;;;;;4972526;28;20054;-54
2023/04/29 11:42:07;;;;;;;20.30;18.30;;;12.80;99.90;;;;;;4953223;28;20035;-52
2023/04/29 11:44:55;;;;;;;20.73;17.35;;;12.70;99.90;;;;;;4954103;28;20110;-48
2023/04/29 11:47:47;;;;;;;18.58;16.65;;;12.70;99.90;;;;;;4975201;28;20031;-49
2023/04/29 11:50:35;;;;;;;19.30;17.30;;;12.70;99.90;;;;;;4970628;28;20093;-47
2023/04/29 11:53:24;;;;;;;19.10;17.20;;;12.70;99.90;;;;;;4976161;28;20510;-48
2023/04/29 11:56:10;;;;;;;20.25;17.38;;;12.90;99.90;;;;;;4974928;28;20027;-53
2023/04/29 11:58:57;;;;;;;20.05;16.75;;;13.10;99.90;;;;;;4957681;28;20528;-48
2023/04/29 12:01:43;;;;;;;20.02;17.90;;;13.00;99.90;;;;;;4956699;28;20103;-47
2023/04/29 12:04:29;;;;;;;19.25;17.23;;;13.00;99.90;;;;;;4957259;28;20031;-53
2023/04/29 12:07:15;;;;;;;18.55;16.58;;;13.10;99.90;;;;;;4966753;28;20037;-47
2023/04/29 12:10:01;;;;;;;18.27;16.35;;;13.20;99.90;;;;;;4977018;28;20104;-44
2023/04/29 12:12:48;;;;;;;17.80;16.10;;;13.40;99.90;;;;;;4975394;28;20071;-44
2023/04/29 12:15:34;;;;;;;16.88;15.18;;;13.50;99.90;;;;;;4973982;28;20097;-47
2023/04/29 12:18:22;;;;;;;17.55;15.75;;;13.70;99.90;;;;;;4974622;28;20031;-44
2023/04/29 12:21:08;;;;;;;16.35;14.63;;;13.70;99.90;;;;;;4974411;28;20051;-44
2023/04/29 12:23:58;;;;;;;17.10;15.50;;;13.80;99.90;;;;;;4975724;28;20093;-44
2023/04/29 12:26:45;;;;;;;18.08;16.15;;;13.80;99.90;;;;;;4975329;28;20074;-47
2023/04/29 12:29:32;;;;;;;19.55;17.55;;;13.30;99.90;;;;;;4970932;28;20062;-48
2023/04/29 12:32:21;;;;;;;22.33;17.02;;;13.30;99.90;;;;;;4975308;28;20105;-44
2023/04/29 12:35:18;;;;;;;17.73;15.93;;;13.30;99.90;;;;;;4954166;29;20086;-48
2023/04/29 12:38:04;;;;;;;19.48;16.80;;;13.20;99.90;;;;;;4955326;29;20026;-52
2023/04/29 12:40:50;;;;;;;20.35;17.05;;;13.20;99.90;;;;;;4973141;28;20035;-49
2023/04/29 12:43:36;;;;;;;18.85;17.05;;;13.20;99.90;;;;;;4973966;28;20031;-49
2023/04/29 12:46:22;;;;;;;18.55;16.55;;;13.30;99.90;;;;;;4973820;28;20038;-51
2023/04/29 12:49:08;;;;;;;21.17;16.38;;;13.30;99.90;;;;;;4975217;28;20027;-45
2023/04/29 12:51:54;;;;;;;18.15;16.35;;;13.20;99.90;;;;;;4970809;28;20491;-45
2023/04/29 12:54:42;;;;;;;17.48;15.77;;;13.30;99.90;;;;;;4975154;28;20082;-48
2023/04/29 12:57:28;;;;;;;18.00;16.08;;;13.30;99.90;;;;;;4973077;28;20043;-53
2023/04/29 13:00:14;;;;;;;18.25;15.35;;;13.20;99.90;;;;;;4975072;28;20550;-45
2023/04/29 13:03:00;;;;;;;17.17;15.48;;;13.20;99.90;;;;;;4961757;28;20023;-51
2023/04/29 13:05:50;;;;;;;18.55;16.58;;;13.20;99.90;;;;;;4959393;28;20511;-48
2023/04/29 13:08:36;;;;;;;17.52;15.73;;;13.20;99.90;;;;;;4951708;28;20037;-51
2023/04/29 13:11:22;;;;;;;16.55;14.80;;;13.20;99.90;;;;;;4972295;28;20496;-51
2023/04/29 13:14:08;;;;;;;16.08;14.48;;;13.20;99.90;;;;;;4955096;29;20043;-48
2023/04/29 13:16:54;;;;;;;16.90;15.30;;;13.20;99.90;;;;;;4953842;29;20642;-45
2023/04/29 13:19:41;;;;;;;17.35;15.20;;;13.40;99.90;;;;;;4955961;29;20046;-48
2023/04/29 13:22:28;;;;;;;16.48;14.77;;;13.60;99.90;;;;;;4965882;28;20055;-48
2023/04/29 13:25:14;;;;;;;15.18;13.68;;;13.50;99.90;;;;;;4971891;28;20027;-45
2023/04/29 13:28:01;;;;;;;16.25;14.57;;;13.70;99.90;;;;;;4973238;28;20285;-46
2023/04/29 13:30:46;;;;;;;15.55;13.88;;;13.80;99.90;;;;;;4971405;28;20035;-44
2023/04/29 13:33:32;;;;;;;14.57;13.18;;;13.70;99.90;;;;;;4974319;28;20119;-52
2023/04/29 13:36:18;;;;;;;16.25;13.90;;;13.80;99.90;;;;;;4970269;28;20102;-60
2023/04/29 13:39:05;;;;;;;14.10;12.57;;;13.90;99.90;;;;;;4952842;28;20037;-49
2023/04/29 13:41:51;;;;;;;14.13;12.73;;;13.80;99.90;;;;;;4969081;28;20027;-45
2023/04/29 13:44:37;;;;;;;15.25;13.15;;;14.00;99.90;;;;;;4974465;28;20097;-43
2023/04/29 13:47:23;;;;;;;13.63;12.35;;;14.20;99.90;;;;;;4960046;28;20503;-49
2023/04/29 13:50:09;;;;;;;14.65;12.00;;;14.40;99.90;;;;;;4973449;28;20415;-45
2023/04/29 13:52:56;;;;;;;12.90;11.10;;;14.40;99.90;;;;;;4968480;28;20114;-50
2023/04/29 13:55:42;;;;;;;12.77;11.43;;;14.20;99.90;;;;;;4950361;28;20173;-46
2023/04/29 13:58:28;;;;;;;12.98;11.15;;;14.30;99.90;;;;;;4963406;28;20508;-48
2023/04/29 14:01:14;;;;;;;13.07;11.18;;;14.40;99.90;;;;;;4973257;28;20039;-50
2023/04/29 14:04:00;;;;;;;12.70;11.50;;;14.30;99.90;;;;;;4973374;28;20138;-51
2023/04/29 14:06:46;;;;;;;13.95;12.55;;;14.20;99.90;;;;;;4972849;28;20046;-44
2023/04/29 14:09:32;;;;;;;13.55;12.23;;;14.10;99.90;;;;;;4969044;28;20046;-47
2023/04/29 14:12:17;;;;;;;15.00;12.10;;;14.10;99.90;;;;;;4968455;28;20053;-46